Time;durP1;ratioP1;P1;durP2;ratioP2;P2;SDS_P1;SDS_P2;PMS_P1;PMS_P2;Temp;Humidity;BMP_temperature;BMP_pressure;BME280_temperature;BME280_humidity;BME280_pressure;Samples;Min_cycle;Max_cycle;Signal;HPM_P1;HPM_P2
2022/11/30 00:01:49;;;;;;;98.50;39.10;;;;;;;1.78;85.25;101657.87;106716;1244;140710;-68
2022/11/30 00:04:14;;;;;;;92.90;38.50;;;;;;;1.77;85.32;101658.20;106871;1241;99399;-67
2022/11/30 00:06:43;;;;;;;98.90;38.90;;;;;;;1.74;85.23;101658.71;106685;1238;141416;-68
2022/11/30 00:09:08;;;;;;;96.40;38.10;;;;;;;1.72;85.30;101662.21;106780;1254;98994;-68
2022/11/30 00:11:33;;;;;;;99.40;38.80;;;;;;;1.72;85.37;101658.34;106799;1237;99419;-68
2022/11/30 00:13:59;;;;;;;101.00;38.80;;;;;;;1.72;85.45;101662.04;106697;1244;140951;-68
2022/11/30 00:16:26;;;;;;;91.50;37.30;;;;;;;1.73;85.31;101660.63;106721;1257;99087;-68
2022/11/30 00:18:51;;;;;;;94.40;37.70;;;;;;;1.70;85.36;101664.66;106703;1245;138889;-69
2022/11/30 00:21:17;;;;;;;100.50;39.30;;;;;;;1.66;85.17;101667.98;106876;1250;99607;-69
2022/11/30 00:23:44;;;;;;;88.60;36.20;;;;;;;1.64;85.36;101669.89;106883;1246;100998;-69
2022/11/30 00:26:13;;;;;;;107.30;41.40;;;;;;;1.62;85.21;101673.92;106863;1245;141137;-69
2022/11/30 00:28:39;;;;;;;104.10;39.90;;;;;;;1.63;85.43;101674.48;106823;1250;99052;-69
2022/11/30 00:31:07;;;;;;;93.40;39.50;;;;;;;1.67;85.53;101678.19;106629;1257;139646;-67
2022/11/30 00:33:35;;;;;;;104.20;42.10;;;;;;;1.67;85.45;101678.02;106817;1245;99084;-67
2022/11/30 00:36:03;;;;;;;92.50;37.90;;;;;;;1.69;85.40;101676.81;106774;1243;100392;-67
2022/11/30 00:38:30;;;;;;;102.90;40.30;;;;;;;1.67;85.35;101679.79;106807;1249;139475;-67
2022/11/30 00:40:56;;;;;;;101.10;38.10;;;;;;;1.67;85.35;101679.77;106776;1257;98525;-68
2022/11/30 00:43:21;;;;;;;97.20;40.40;;;;;;;1.66;85.32;101682.23;106686;1240;138924;-67
2022/11/30 00:45:47;;;;;;;105.00;42.10;;;;;;;1.64;85.25;101684.87;106850;1255;99283;-68
2022/11/30 00:48:12;;;;;;;104.00;41.10;;;;;;;1.65;85.23;101685.59;106710;1251;99160;-67
2022/11/30 00:50:37;;;;;;;100.40;39.30;;;;;;;1.64;85.39;101683.81;106754;1254;139333;-67
2022/11/30 00:53:03;;;;;;;100.60;38.60;;;;;;;1.65;85.31;101688.94;106758;1241;99071;-67
2022/11/30 00:55:30;;;;;;;110.70;41.80;;;;;;;1.65;85.41;101686.29;106677;1245;140355;-67
2022/11/30 00:57:55;;;;;;;109.20;43.70;;;;;;;1.64;85.35;101686.45;106699;1245;98996;-68
2022/11/30 01:00:20;;;;;;;100.90;37.80;;;;;;;1.65;85.28;101686.45;106851;1242;99115;-68
2022/11/30 01:02:46;;;;;;;104.70;40.00;;;;;;;1.63;85.22;101689.26;106671;1248;140202;-69
2022/11/30 01:05:11;;;;;;;108.30;43.40;;;;;;;1.58;85.15;101692.21;106818;1250;98976;-68
2022/11/30 01:07:36;;;;;;;112.30;43.70;;;;;;;1.56;85.32;101688.67;106705;1249;140750;-66
2022/11/30 01:10:02;;;;;;;114.70;44.00;;;;;;;1.55;85.28;101691.66;106912;1249;99072;-66
2022/11/30 01:12:27;;;;;;;112.50;42.60;;;;;;;1.56;85.43;101691.84;106694;1251;141145;-67
2022/11/30 01:14:53;;;;;;;111.30;43.30;;;;;;;1.57;85.25;101690.97;106767;1241;99081;-67
2022/11/30 01:17:18;;;;;;;111.90;43.30;;;;;;;1.58;85.31;101694.48;106845;1238;98752;-67
2022/11/30 01:19:43;;;;;;;113.00;45.30;;;;;;;1.58;85.36;101696.63;106721;1250;140817;-67
2022/11/30 01:22:09;;;;;;;106.60;42.40;;;;;;;1.58;85.21;101696.09;106818;1254;99185;-67
2022/11/30 01:24:34;;;;;;;120.40;45.20;;;;;;;1.55;85.22;101699.75;106674;1259;140748;-69
2022/11/30 01:26:59;;;;;;;116.50;45.00;;;;;;;1.53;85.35;101700.61;106810;1247;98949;-67
2022/11/30 01:29:24;;;;;;;111.70;44.70;;;;;;;1.54;85.33;101702.55;106805;1236;100098;-67
2022/11/30 01:31:50;;;;;;;112.90;44.90;;;;;;;1.54;85.24;101701.69;106622;1254;139903;-67
2022/11/30 01:34:15;;;;;;;110.20;41.90;;;;;;;1.53;85.31;101702.55;106863;1246;99084;-67
2022/11/30 01:36:42;;;;;;;110.80;41.70;;;;;;;1.49;85.32;101703.03;106647;1249;140801;-67
2022/11/30 01:39:08;;;;;;;110.30;42.50;;;;;;;1.47;85.19;101702.65;106720;1248;99229;-67
2022/11/30 01:41:35;;;;;;;105.60;40.40;;;;;;;1.47;85.26;101705.13;106805;1243;98983;-67
2022/11/30 01:44:04;;;;;;;112.20;41.90;;;;;;;1.46;85.12;101708.98;106816;1250;138820;-67
2022/11/30 01:46:39;;;;;;;106.60;40.30;;;;;;;1.43;85.20;101709.84;106784;1236;113239;-67
2022/11/30 01:49:08;;;;;;;114.80;43.60;;;;;;;1.42;85.09;101715.64;106812;1253;141155;-67
2022/11/30 01:51:47;;;;;;;109.60;41.30;;;;;;;1.40;85.22;101715.80;106747;1250;108293;-69
2022/11/30 01:54:16;;;;;;;104.90;40.00;;;;;;;1.34;85.02;101718.54;106740;1238;98959;-67
2022/11/30 01:56:46;;;;;;;116.50;43.50;;;;;;;1.30;85.10;101717.96;106663;1248;138590;-68
2022/11/30 01:59:12;;;;;;;112.40;41.40;;;;;;;1.27;85.11;101717.40;106805;1257;113194;-67
2022/11/30 02:01:37;;;;;;;119.00;43.60;;;;;;;1.23;84.92;101718.23;106662;1252;140435;-67
2022/11/30 02:04:11;;;;;;;105.00;38.90;;;;;;;1.20;85.00;101719.96;106821;1254;99157;-67
2022/11/30 02:06:36;;;;;;;118.90;41.60;;;;;;;1.17;85.07;101725.20;106691;1246;139792;-67
2022/11/30 02:09:02;;;;;;;119.60;43.60;;;;;;;1.16;85.07;101724.14;106714;1255;98966;-67
2022/11/30 02:11:27;;;;;;;110.00;40.20;;;;;;;1.14;85.08;101722.17;106881;1254;99304;-67
2022/11/30 02:14:09;;;;;;;98.80;36.60;;;;;;;1.11;85.02;101725.30;106668;1245;139902;-67
2022/11/30 02:17:07;;;;;;;99.90;37.00;;;;;;;1.06;84.90;101726.48;106823;1251;99138;-67
2022/11/30 02:20:09;;;;;;;108.30;40.60;;;;;;;1.01;85.02;101724.48;106660;1245;139158;-67
2022/11/30 02:22:44;;;;;;;114.80;41.60;;;;;;;0.97;85.01;101723.90;106779;1251;99739;-67
2022/11/30 02:25:38;;;;;;;114.90;41.00;;;;;;;0.97;85.10;101724.24;106553;1240;140464;-67
2022/11/30 02:28:12;;;;;;;109.50;40.00;;;;;;;0.97;85.21;101722.66;106786;1245;98962;-67
2022/11/30 02:30:45;;;;;;;110.00;39.90;;;;;;;0.97;85.14;101717.39;106685;1249;139237;-66
2022/11/30 02:33:17;;;;;;;121.30;40.80;;;;;;;0.98;85.12;101718.11;106809;1244;113330;-67
2022/11/30 02:35:46;;;;;;;111.60;41.40;;;;;;;0.98;85.11;101717.40;106799;1249;100302;-67
2022/11/30 02:38:12;;;;;;;114.70;42.70;;;;;;;0.95;85.08;101720.54;106861;1251;140688;-67
2022/11/30 02:40:37;;;;;;;110.20;39.70;;;;;;;0.96;85.16;101724.05;106938;1235;99885;-67
2022/11/30 02:43:05;;;;;;;104.60;38.20;;;;;;;0.96;85.19;101720.90;106894;1241;140870;-67
2022/11/30 02:45:40;;;;;;;104.90;38.00;;;;;;;0.96;85.19;101723.00;106886;1248;100558;-67
2022/11/30 02:48:12;;;;;;;107.90;42.00;;;;;;;0.96;85.17;101725.65;106893;1251;108130;-67
2022/11/30 02:50:52;;;;;;;114.30;42.10;;;;;;;0.98;85.22;101728.13;106934;1259;139433;-67
2022/11/30 02:53:18;;;;;;;123.80;41.50;;;;;;;0.98;85.22;101727.08;107026;1251;99348;-67
2022/11/30 02:55:44;;;;;;;107.80;40.30;;;;;;;0.97;85.17;101728.83;107007;1250;138817;-68
2022/11/30 02:58:10;;;;;;;106.80;41.40;;;;;;;0.94;85.07;101730.19;106991;1248;100078;-67
2022/11/30 03:00:35;;;;;;;123.80;41.10;;;;;;;0.91;85.16;101730.69;106970;1242;141432;-67
2022/11/30 03:03:01;;;;;;;108.70;39.80;;;;;;;0.90;85.14;101732.27;106916;1250;98984;-67
2022/11/30 03:05:26;;;;;;;124.90;43.40;;;;;;;0.87;85.22;101733.97;106995;1244;100552;-67
2022/11/30 03:07:51;;;;;;;118.10;41.70;;;;;;;0.86;85.23;101735.89;106823;1249;141448;-67
2022/11/30 03:10:17;;;;;;;117.90;42.20;;;;;;;0.88;85.23;101734.86;107000;1249;99186;-67
2022/11/30 03:12:42;;;;;;;111.60;40.40;;;;;;;0.86;85.04;101741.52;106818;1233;139608;-67
2022/11/30 03:15:08;;;;;;;110.40;38.20;;;;;;;0.81;85.13;101744.09;106908;1247;100346;-67
2022/11/30 03:17:33;;;;;;;112.70;39.20;;;;;;;0.76;85.05;101741.90;107043;1243;99534;-67
2022/11/30 03:19:59;;;;;;;115.50;40.60;;;;;;;0.74;85.18;101743.81;106791;1241;139394;-67
2022/11/30 03:22:24;;;;;;;116.60;40.00;;;;;;;0.70;85.07;101742.52;106972;1244;99096;-67
2022/11/30 03:24:49;;;;;;;122.60;41.20;;;;;;;0.67;85.20;101742.14;106786;1240;139508;-68
2022/11/30 03:27:15;;;;;;;122.90;41.30;;;;;;;0.70;85.30;101740.77;106958;1260;99084;-67
2022/11/30 03:29:40;;;;;;;114.90;40.40;;;;;;;0.70;85.24;101739.89;107004;1245;99013;-67
2022/11/30 03:32:05;;;;;;;121.70;41.50;;;;;;;0.72;85.31;101748.18;106788;1251;139491;-67
2022/11/30 03:34:31;;;;;;;115.50;40.60;;;;;;;0.74;85.35;101747.50;106994;1243;99019;-67
2022/11/30 03:36:56;;;;;;;108.30;40.20;;;;;;;0.74;85.34;101745.40;106810;1258;139554;-67
2022/11/30 03:39:23;;;;;;;109.50;39.50;;;;;;;0.71;85.23;101746.41;107021;1248;98980;-69
2022/11/30 03:41:48;;;;;;;109.10;38.30;;;;;;;0.68;85.23;101751.28;107092;1249;98966;-68
2022/11/30 03:44:14;;;;;;;107.50;40.50;;;;;;;0.65;85.26;101751.77;106797;1243;138952;-67
2022/11/30 03:46:39;;;;;;;119.30;42.50;;;;;;;0.67;85.27;101751.64;106974;1251;99074;-67
2022/11/30 03:49:05;;;;;;;112.90;43.30;;;;;;;0.66;85.30;101753.55;106873;1237;139686;-68
2022/11/30 03:51:30;;;;;;;109.10;38.00;;;;;;;0.67;85.31;101754.96;106971;1245;99010;-67
2022/11/30 03:53:55;;;;;;;104.30;37.50;;;;;;;0.65;85.26;101759.52;106956;1251;99482;-67
2022/11/30 03:56:21;;;;;;;104.70;38.10;;;;;;;0.62;85.32;101761.92;106856;1249;140718;-67
2022/11/30 03:58:46;;;;;;;119.50;41.80;;;;;;;0.57;85.30;101764.49;106974;1241;99388;-67
2022/11/30 04:01:20;;;;;;;120.60;38.60;;;;;;;0.57;85.36;101763.80;106838;1244;140580;-67
2022/11/30 04:03:46;;;;;;;105.40;37.80;;;;;;;0.57;85.33;101763.45;106950;1243;99107;-67
2022/11/30 04:06:12;;;;;;;108.00;42.40;;;;;;;0.55;85.31;101761.13;106955;1251;100712;-67
2022/11/30 04:08:38;;;;;;;110.70;39.90;;;;;;;0.54;85.49;101762.00;106957;1249;139089;-67
2022/11/30 04:11:04;;;;;;;118.20;40.10;;;;;;;0.54;85.41;101765.68;106929;1234;100445;-67
2022/11/30 04:13:31;;;;;;;106.00;38.20;;;;;;;0.55;85.44;101764.45;106927;1243;139214;-67
2022/11/30 04:15:57;;;;;;;106.80;39.60;;;;;;;0.53;85.34;101768.48;106958;1249;98988;-67
2022/11/30 04:18:24;;;;;;;118.50;41.80;;;;;;;0.49;85.30;101772.10;107013;1251;140340;-67
2022/11/30 04:20:51;;;;;;;123.30;41.50;;;;;;;0.50;85.53;101772.30;106766;1257;99174;-67
2022/11/30 04:23:16;;;;;;;100.50;36.20;;;;;;;0.50;85.35;101771.59;106883;1253;99014;-67
2022/11/30 04:25:42;;;;;;;112.80;39.80;;;;;;;0.48;85.45;101771.91;106666;1249;140202;-67
2022/11/30 04:28:08;;;;;;;104.10;35.00;;;;;;;0.48;85.45;101768.58;106830;1247;99004;-67
2022/11/30 04:30:34;;;;;;;104.90;38.40;;;;;;;0.44;85.39;101769.92;106683;1251;141273;-67
2022/11/30 04:33:00;;;;;;;106.40;38.50;;;;;;;0.41;85.42;101768.80;107037;1254;99415;-67
2022/11/30 04:35:26;;;;;;;111.40;39.20;;;;;;;0.40;85.49;101769.85;106865;1235;98964;-67
2022/11/30 04:37:51;;;;;;;97.80;34.20;;;;;;;0.41;85.50;101772.85;106712;1241;139288;-67
2022/11/30 04:40:17;;;;;;;108.60;39.80;;;;;;;0.38;85.36;101776.86;106771;1244;99770;-67
2022/11/30 04:42:42;;;;;;;91.10;33.40;;;;;;;0.37;85.53;101776.66;106841;1242;139065;-67
2022/11/30 04:45:08;;;;;;;105.50;39.40;;;;;;;0.34;85.55;101784.88;106781;1243;99041;-67
2022/11/30 04:47:34;;;;;;;93.50;34.80;;;;;;;0.33;85.52;101783.28;106838;1248;99144;-67
2022/11/30 04:49:59;;;;;;;101.50;38.50;;;;;;;0.30;85.37;101785.17;106778;1249;139292;-67
2022/11/30 04:52:24;;;;;;;90.70;35.50;;;;;;;0.26;85.50;101788.79;106805;1254;99048;-67
2022/11/30 04:54:50;;;;;;;109.40;39.90;;;;;;;0.26;85.50;101785.97;106743;1244;138906;-67
2022/11/30 04:57:16;;;;;;;94.90;37.00;;;;;;;0.27;85.53;101786.68;106772;1254;99104;-67
2022/11/30 04:59:42;;;;;;;105.00;40.50;;;;;;;0.26;85.54;101792.66;106890;1241;99028;-67
2022/11/30 05:02:07;;;;;;;101.20;38.50;;;;;;;0.25;85.54;101793.70;106768;1250;139443;-67
2022/11/30 05:04:32;;;;;;;90.90;34.20;;;;;;;0.24;85.60;101793.33;106846;1244;98970;-67
2022/11/30 05:06:58;;;;;;;94.40;35.10;;;;;;;0.26;85.66;101797.74;106739;1249;141009;-67
2022/11/30 05:09:23;;;;;;;96.40;35.50;;;;;;;0.28;85.74;101797.61;106887;1236;99032;-67
2022/11/30 05:11:48;;;;;;;97.00;35.00;;;;;;;0.28;85.60;101798.13;106838;1247;98971;-67
2022/11/30 05:14:14;;;;;;;109.30;40.00;;;;;;;0.27;85.67;101798.47;106767;1244;139294;-67
2022/11/30 05:16:39;;;;;;;103.00;38.30;;;;;;;0.26;85.69;101803.02;106843;1247;99096;-67
2022/11/30 05:19:04;;;;;;;100.90;37.20;;;;;;;0.22;85.50;101807.16;106806;1257;139483;-67
2022/11/30 05:21:30;;;;;;;107.90;39.30;;;;;;;0.18;85.49;101811.84;106976;1243;98974;-67
2022/11/30 05:23:55;;;;;;;107.70;39.30;;;;;;;0.14;85.61;101811.08;106894;1245;99005;-67
2022/11/30 05:26:21;;;;;;;110.30;40.00;;;;;;;0.12;85.67;101814.73;106868;1244;138940;-67
2022/11/30 05:28:46;;;;;;;106.70;38.60;;;;;;;0.15;85.74;101821.45;106936;1245;98971;-67
2022/11/30 05:31:11;;;;;;;104.70;38.10;;;;;;;0.16;85.69;101822.70;106843;1251;138914;-67
2022/11/30 05:33:37;;;;;;;106.60;38.30;;;;;;;0.13;85.60;101829.33;107007;1234;99248;-67
2022/11/30 05:36:02;;;;;;;96.40;36.00;;;;;;;0.13;85.79;101830.91;106902;1250;100855;-67
2022/11/30 05:38:27;;;;;;;100.00;36.10;;;;;;;0.10;85.53;101830.85;106867;1243;140531;-67
2022/11/30 05:41:01;;;;;;;93.90;35.40;;;;;;;0.06;85.65;101833.24;106920;1248;99188;-67
2022/11/30 05:43:27;;;;;;;99.30;33.80;;;;;;;0.06;85.76;101835.34;106861;1244;138705;-67
2022/11/30 05:45:59;;;;;;;103.90;39.50;;;;;;;0.06;85.63;101833.25;106881;1250;99556;-67
2022/11/30 05:48:24;;;;;;;103.90;36.90;;;;;;;0.06;85.80;101836.92;106866;1250;139524;-67
2022/11/30 05:50:50;;;;;;;102.70;37.60;;;;;;;0.05;85.69;101841.31;106823;1235;99414;-67
2022/11/30 05:53:15;;;;;;;104.10;36.60;;;;;;;0.05;85.88;101843.42;106922;1245;99055;-67
2022/11/30 05:55:41;;;;;;;109.50;37.60;;;;;;;0.08;85.90;101846.98;106709;1262;140201;-67
2022/11/30 05:58:06;;;;;;;101.80;34.60;;;;;;;0.09;85.87;101846.14;106825;1236;98996;-67
2022/11/30 06:00:31;;;;;;;103.10;37.40;;;;;;;0.10;85.86;101846.49;106680;1250;140646;-67
2022/11/30 06:02:57;;;;;;;111.50;40.30;;;;;;;0.08;85.82;101843.81;106865;1246;99077;-67
2022/11/30 06:05:23;;;;;;;108.10;38.10;;;;;;;0.06;85.89;101843.79;106955;1250;98962;-67
2022/11/30 06:07:48;;;;;;;103.80;36.50;;;;;;;0.06;85.80;101846.93;106727;1236;138914;-69
2022/11/30 06:10:14;;;;;;;104.70;36.40;;;;;;;0.04;85.85;101851.30;106740;1237;102072;-68
2022/11/30 06:12:39;;;;;;;102.90;35.70;;;;;;;0.04;85.90;101859.20;106836;1237;140205;-69
2022/11/30 06:15:05;;;;;;;102.10;37.00;;;;;;;0.06;85.89;101867.85;106841;1238;100246;-69
2022/11/30 06:17:30;;;;;;;102.80;37.20;;;;;;;0.06;85.99;101867.16;106926;1244;98991;-66
2022/11/30 06:19:55;;;;;;;112.90;37.70;;;;;;;0.06;85.95;101863.11;106684;1237;139330;-69
2022/11/30 06:22:21;;;;;;;119.10;38.90;;;;;;;0.07;86.09;101864.19;106978;1242;99200;-67
2022/11/30 06:24:46;;;;;;;113.10;40.00;;;;;;;0.04;85.90;101865.54;106756;1245;139403;-67
2022/11/30 06:27:11;;;;;;;98.20;35.70;;;;;;;0.02;85.89;101866.91;106742;1248;98254;-67
2022/11/30 06:29:36;;;;;;;100.90;35.30;;;;;;;0.00;85.78;101867.77;106874;1238;99066;-67
2022/11/30 06:32:02;;;;;;;104.10;35.10;;;;;;;-0.02;85.95;101864.58;106558;1236;140517;-67
2022/11/30 06:34:30;;;;;;;108.10;38.10;;;;;;;-0.04;85.98;101861.91;106780;1233;100371;-67
2022/11/30 06:36:56;;;;;;;110.10;38.00;;;;;;;-0.01;86.06;101861.79;106744;1242;140746;-67
2022/11/30 06:39:22;;;;;;;98.50;34.40;;;;;;;0.01;86.23;101866.73;106844;1245;99456;-67
2022/11/30 06:41:47;;;;;;;117.40;40.70;;;;;;;-0.01;86.09;101869.35;106751;1255;99075;-68
2022/11/30 06:44:12;;;;;;;112.20;38.80;;;;;;;0.00;86.11;101873.04;106614;1253;140913;-68
2022/11/30 06:46:38;;;;;;;114.50;40.60;;;;;;;-0.00;86.09;101876.73;106828;1239;100262;-67
2022/11/30 06:49:03;;;;;;;116.60;39.10;;;;;;;0.03;86.21;101877.46;106648;1247;139307;-68
2022/11/30 06:51:28;;;;;;;109.70;38.60;;;;;;;0.04;86.26;101881.52;106846;1251;98984;-68
2022/11/30 06:53:54;;;;;;;108.10;39.60;;;;;;;0.06;86.26;101882.80;106728;1245;99022;-68
2022/11/30 06:56:19;;;;;;;114.60;39.50;;;;;;;0.09;86.32;101890.95;106657;1233;139475;-68
2022/11/30 06:58:44;;;;;;;112.10;37.90;;;;;;;0.10;86.27;101890.96;106933;1254;99373;-68
2022/11/30 07:01:12;;;;;;;109.40;38.70;;;;;;;0.09;86.23;101891.12;106558;1237;139581;-68
2022/11/30 07:03:39;;;;;;;107.40;38.50;;;;;;;0.10;86.26;101896.05;106696;1242;98972;-68
2022/11/30 07:06:09;;;;;;;103.90;34.70;;;;;;;0.10;86.17;101895.70;106661;1247;98967;-69
2022/11/30 07:08:35;;;;;;;113.20;38.30;;;;;;;0.07;86.19;101894.08;106513;1246;139710;-69
2022/11/30 07:11:00;;;;;;;117.20;39.10;;;;;;;0.05;86.17;101897.71;106720;1229;98977;-68
2022/11/30 07:13:26;;;;;;;110.00;35.90;;;;;;;0.03;86.13;101895.55;106622;1241;138873;-68
2022/11/30 07:15:51;;;;;;;101.20;35.40;;;;;;;0.01;86.22;101897.29;106736;1235;99144;-68
2022/11/30 07:18:16;;;;;;;111.00;38.50;;;;;;;0.02;86.22;101904.33;106757;1235;99395;-68
2022/11/30 07:20:41;;;;;;;105.60;36.80;;;;;;;0.04;86.35;101909.30;106776;1244;140075;-68
2022/11/30 07:26:11;;;;;;;105.10;34.80;;;;;;;0.10;86.31;101913.10;106710;1252;141301;-68
2022/11/30 07:28:40;;;;;;;88.70;33.30;;;;;;;0.09;86.34;101915.71;106794;1237;112563;-68
2022/11/30 07:31:18;;;;;;;103.00;36.00;;;;;;;0.10;86.35;101917.67;106704;1244;139756;-68
2022/11/30 07:33:43;;;;;;;105.20;35.60;;;;;;;0.09;86.36;101916.61;107011;1236;107225;-69
2022/11/30 07:36:09;;;;;;;103.50;36.40;;;;;;;0.06;86.23;101918.30;107165;1230;99011;-68
2022/11/30 07:38:34;;;;;;;107.30;36.60;;;;;;;0.04;86.37;101914.20;107123;1247;139991;-68
2022/11/30 07:40:59;;;;;;;106.00;38.40;;;;;;;0.01;86.36;101917.67;107208;1253;98996;-68
2022/11/30 07:43:26;;;;;;;108.80;37.50;;;;;;;0.03;86.37;101917.70;106804;1242;138881;-68
2022/11/30 07:45:52;;;;;;;95.30;32.80;;;;;;;0.04;86.43;101918.27;106883;1237;99169;-67
2022/11/30 07:48:18;;;;;;;110.60;37.10;;;;;;;0.07;86.50;101917.60;107138;1248;98981;-69
2022/11/30 07:50:44;;;;;;;94.90;34.40;;;;;;;0.08;86.48;101914.11;107248;1244;138606;-68
2022/11/30 07:53:09;;;;;;;98.60;33.10;;;;;;;0.09;86.50;101918.70;107283;1237;98981;-68
2022/11/30 07:55:34;;;;;;;109.50;37.00;;;;;;;0.07;86.41;101921.65;106845;1238;139422;-68
2022/11/30 07:58:00;;;;;;;100.10;35.90;;;;;;;0.06;86.39;101920.23;106966;1228;99086;-68
2022/11/30 08:00:25;;;;;;;94.10;34.00;;;;;;;0.07;86.59;101918.33;106734;1227;141777;-69
2022/11/30 08:02:51;;;;;;;119.80;41.60;;;;;;;0.11;86.63;101919.80;106963;1243;99090;-68
2022/11/30 08:05:16;;;;;;;103.60;36.00;;;;;;;0.15;86.57;101923.56;106864;1230;111602;-68
2022/11/30 08:07:41;;;;;;;104.90;35.90;;;;;;;0.14;86.53;101927.42;107044;1227;139596;-68
2022/11/30 08:10:07;;;;;;;105.50;35.50;;;;;;;0.14;86.61;101924.45;107416;1235;99297;-68
2022/11/30 08:12:33;;;;;;;105.60;36.70;;;;;;;0.15;86.63;101918.30;107241;1237;139670;-68
2022/11/30 08:14:58;;;;;;;104.30;35.00;;;;;;;0.16;86.56;101924.65;107454;1244;99116;-69
2022/11/30 08:17:23;;;;;;;100.10;36.00;;;;;;;0.16;86.59;101924.29;107483;1244;100363;-69
2022/11/30 08:19:48;;;;;;;96.50;34.80;;;;;;;0.19;86.73;101924.88;107317;1243;138935;-69
2022/11/30 08:22:14;;;;;;;94.60;35.50;;;;;;;0.23;86.74;101924.42;107532;1244;98958;-69
2022/11/30 08:24:39;;;;;;;97.60;33.40;;;;;;;0.21;86.61;101923.16;107413;1237;140805;-69
2022/11/30 08:27:04;;;;;;;103.10;32.90;;;;;;;0.22;86.65;101927.58;107503;1243;97827;-68
2022/11/30 08:29:29;;;;;;;106.80;37.00;;;;;;;0.21;86.47;101927.73;107452;1227;99089;-69
2022/11/30 08:31:55;;;;;;;106.70;38.60;;;;;;;0.18;86.51;101934.52;107390;1244;138880;-69
2022/11/30 08:34:20;;;;;;;96.90;34.10;;;;;;;0.18;86.69;101937.70;107535;1235;99546;-69
2022/11/30 08:36:45;;;;;;;111.80;35.00;;;;;;;0.21;86.71;101939.69;107306;1249;138798;-69
2022/11/30 08:39:12;;;;;;;104.80;35.40;;;;;;;0.24;86.85;101937.81;107458;1241;100026;-69
2022/11/30 08:41:38;;;;;;;104.70;36.20;;;;;;;0.25;86.78;101941.17;107402;1257;99695;-69
2022/11/30 08:44:04;;;;;;;107.20;35.50;;;;;;;0.28;86.79;101943.35;107287;1235;140304;-69
2022/11/30 08:46:30;;;;;;;102.10;35.80;;;;;;;0.29;86.77;101943.70;107466;1244;99051;-68
2022/11/30 08:48:55;;;;;;;104.40;36.80;;;;;;;0.34;86.85;101946.79;106806;1227;139587;-68
2022/11/30 08:51:20;;;;;;;95.90;32.80;;;;;;;0.37;86.77;101952.48;106832;1234;99011;-68
2022/11/30 08:53:47;;;;;;;88.00;32.50;;;;;;;0.34;86.68;101954.88;106879;1227;99193;-68
2022/11/30 08:56:18;;;;;;;100.10;34.20;;;;;;;0.37;86.91;101956.17;107248;1236;138804;-69
2022/11/30 08:58:45;;;;;;;99.60;33.40;;;;;;;0.36;86.76;101959.66;107376;1233;111687;-69
2022/11/30 09:01:22;;;;;;;96.50;32.80;;;;;;;0.33;86.62;101962.77;107267;1229;140124;-69
2022/11/30 09:03:50;;;;;;;96.20;32.00;;;;;;;0.32;86.68;101966.81;107353;1229;108084;-69
2022/11/30 09:06:18;;;;;;;104.60;34.90;;;;;;;0.32;86.73;101967.67;107324;1229;98959;-69
2022/11/30 09:08:46;;;;;;;102.40;33.20;;;;;;;0.33;86.78;101970.86;107254;1247;138506;-69
2022/11/30 09:11:21;;;;;;;102.80;34.30;;;;;;;0.34;86.81;101975.98;107320;1245;97800;-69
2022/11/30 09:13:47;;;;;;;98.30;33.60;;;;;;;0.36;86.82;101971.60;107241;1252;138684;-69
2022/11/30 09:16:15;;;;;;;109.00;38.50;;;;;;;0.36;86.77;101971.98;107284;1245;97949;-69
2022/11/30 09:18:40;;;;;;;120.40;40.10;;;;;;;0.37;86.89;101971.30;107202;1246;139259;-70
2022/11/30 09:21:11;;;;;;;113.90;39.60;;;;;;;0.40;86.93;101967.83;107339;1236;99038;-69
2022/11/30 09:23:37;;;;;;;123.80;41.00;;;;;;;0.43;86.89;101968.05;107288;1233;101389;-68
2022/11/30 09:26:08;;;;;;;113.20;38.60;;;;;;;0.42;86.86;101970.33;107154;1229;141878;-69
2022/11/30 09:28:35;;;;;;;100.10;33.10;;;;;;;0.42;86.87;101967.86;107303;1236;98970;-69
2022/11/30 09:31:11;;;;;;;99.20;35.50;;;;;;;0.35;86.62;101971.61;107191;1245;139670;-72
2022/11/30 09:33:37;;;;;;;111.40;35.20;;;;;;;0.29;86.66;101976.07;107393;1247;112296;-68
2022/11/30 09:36:06;;;;;;;103.70;34.10;;;;;;;0.31;86.81;101976.09;107297;1244;98924;-68
2022/11/30 09:38:31;;;;;;;107.70;36.00;;;;;;;0.31;86.78;101972.05;107177;1250;140748;-68
2022/11/30 09:41:05;;;;;;;109.90;37.20;;;;;;;0.30;86.74;101971.85;107221;1244;98720;-68
2022/11/30 09:43:55;;;;;;;112.90;41.70;;;;;;;0.31;86.91;101970.30;107227;1234;139365;-68
2022/11/30 09:46:29;;;;;;;105.40;36.90;;;;;;;0.32;86.84;101967.86;106722;1229;112942;-68
2022/11/30 09:49:06;;;;;;;114.50;38.00;;;;;;;0.33;86.93;101965.94;106689;1229;140512;-69
2022/11/30 09:51:45;;;;;;;110.50;37.90;;;;;;;0.32;86.86;101964.88;107329;1245;106479;-69
2022/11/30 09:54:34;;;;;;;116.10;39.10;;;;;;;0.36;86.88;101964.40;107263;1236;99065;-69
2022/11/30 09:57:27;;;;;;;110.70;38.30;;;;;;;0.37;86.90;101967.95;107292;1239;99048;-69
2022/11/30 09:59:58;;;;;;;111.30;38.40;;;;;;;0.38;86.88;101967.26;107236;1246;112584;-70
2022/11/30 10:02:28;;;;;;;104.80;37.10;;;;;;;0.37;86.83;101964.08;107302;1247;138941;-69
2022/11/30 10:04:53;;;;;;;108.20;37.10;;;;;;;0.42;87.00;101964.52;107289;1239;107430;-69
2022/11/30 10:07:43;;;;;;;101.80;34.90;;;;;;;0.48;87.06;101965.34;107173;1246;139043;-69
2022/11/30 10:10:37;;;;;;;103.50;36.90;;;;;;;0.52;87.00;101965.42;107328;1244;98973;-69
2022/11/30 10:13:27;;;;;;;107.10;36.70;;;;;;;0.51;86.92;101967.86;107134;1245;139473;-68
2022/11/30 10:15:58;;;;;;;105.90;32.70;;;;;;;0.51;86.92;101968.91;107290;1244;99524;-69
2022/11/30 10:18:46;;;;;;;;;;;;;;;0.49;86.85;101971.34;107301;1252;107540;-69
2022/11/30 10:21:31;;;;;;;103.40;34.30;;;;;;;0.47;86.98;101970.42;107237;1252;99720;-69
2022/11/30 10:24:30;;;;;;;101.90;34.50;;;;;;;0.48;86.92;101973.61;107285;1233;99434;-69
2022/11/30 10:26:57;;;;;;;100.80;34.90;;;;;;;0.49;86.93;101975.39;107134;1229;139258;-69
2022/11/30 10:29:32;;;;;;;106.90;36.60;;;;;;;0.50;87.00;101976.99;107309;1252;99007;-69
2022/11/30 10:32:00;;;;;;;117.90;37.80;;;;;;;0.50;86.91;101971.18;107168;1239;138819;-70
2022/11/30 10:34:35;;;;;;;100.90;36.60;;;;;;;0.51;86.88;101970.67;107255;1236;99446;-69
2022/11/30 10:37:13;;;;;;;99.00;32.40;;;;;;;0.52;87.03;101966.83;107208;1253;139469;-70
2022/11/30 10:39:54;;;;;;;109.40;37.70;;;;;;;0.52;86.98;101967.89;107260;1236;112503;-70
2022/11/30 10:42:31;;;;;;;138.20;42.90;;;;;;;0.53;86.93;101968.08;107260;1231;99351;-70
2022/11/30 10:45:03;;;;;;;110.30;37.90;;;;;;;0.54;87.01;101967.05;107107;1246;139498;-70
2022/11/30 10:47:35;;;;;;;104.10;34.30;;;;;;;0.53;87.04;101969.48;107269;1244;99093;-71
2022/11/30 10:50:03;;;;;;;101.80;33.60;;;;;;;0.50;86.87;101966.80;107210;1236;140561;-70
2022/11/30 10:52:37;;;;;;;111.10;36.20;;;;;;;0.49;86.87;101962.73;107284;1236;113132;-70
2022/11/30 10:55:13;;;;;;;105.10;33.90;;;;;;;0.47;86.96;101963.39;107190;1245;139295;-70
2022/11/30 10:57:39;;;;;;;109.10;34.40;;;;;;;0.48;86.93;101962.36;107257;1236;108477;-70
2022/11/30 11:00:12;;;;;;;110.10;35.10;;;;;;;0.50;86.97;101960.45;106993;1229;99066;-71
2022/11/30 11:02:46;;;;;;;106.50;35.60;;;;;;;0.47;86.79;101960.58;107116;1244;139853;-71
2022/11/30 11:05:19;;;;;;;110.00;33.70;;;;;;;0.43;86.88;101957.52;107207;1229;112679;-70
2022/11/30 11:07:53;;;;;;;116.60;38.20;;;;;;;0.46;86.97;101958.45;106968;1230;139977;-68